createdAt,value
2022-08-30T00:01:44.338Z,1018.63
2022-08-30T00:16:44.953Z,1018.59
2022-08-30T00:31:46.820Z,1018.66
2022-08-30T00:46:47.842Z,1018.73
2022-08-30T01:01:49.834Z,1018.74
2022-08-30T01:16:50.363Z,1018.84
2022-08-30T01:31:52.231Z,1018.73
2022-08-30T01:46:52.828Z,1018.78
2022-08-30T02:01:54.703Z,1018.77
2022-08-30T02:16:55.329Z,1018.82
2022-08-30T02:31:57.178Z,1018.78
2022-08-30T02:46:57.742Z,1018.64
2022-08-30T03:01:59.616Z,1018.70
2022-08-30T03:17:00.209Z,1018.66
2022-08-30T03:32:02.384Z,1018.74
2022-08-30T03:47:02.884Z,1018.80
2022-08-30T04:02:04.791Z,1018.89
2022-08-30T04:17:05.915Z,1018.88
2022-08-30T04:32:07.863Z,1019.06
2022-08-30T04:47:08.871Z,1019.07
2022-08-30T05:02:14.328Z,1019.11
2022-08-30T05:17:15.807Z,1019.23
2022-08-30T05:32:17.489Z,1019.27
2022-08-30T05:47:17.949Z,1019.35
2022-08-30T06:02:19.910Z,1019.36
2022-08-30T06:17:20.427Z,1019.45
2022-08-30T06:32:22.277Z,1019.54
2022-08-30T06:47:22.887Z,1019.72
2022-08-30T07:02:23.554Z,1019.74
2022-08-30T07:17:24.093Z,1019.85
2022-08-30T07:32:25.938Z,1019.99
2022-08-30T07:47:26.052Z,1020.11
2022-08-30T08:02:27.983Z,1020.14
2022-08-30T08:17:28.494Z,1020.28
2022-08-30T08:32:29.213Z,1020.20
2022-08-30T08:47:29.695Z,1020.40
2022-08-30T09:02:34.393Z,1020.47
2022-08-30T09:17:35.197Z,1020.49
2022-08-30T09:32:37.433Z,1020.52
2022-08-30T09:47:37.593Z,1020.52
2022-08-30T10:02:39.448Z,1020.53
2022-08-30T10:17:40.064Z,1020.51
2022-08-30T10:32:41.434Z,1020.48
2022-08-30T10:47:42.149Z,1020.44
2022-08-30T11:02:44.025Z,1020.40
2022-08-30T11:17:44.665Z,1020.27
2022-08-30T11:32:46.029Z,1020.13
2022-08-30T11:47:46.137Z,1019.99
2022-08-30T12:02:48.666Z,1019.90
2022-08-30T12:17:50.702Z,1019.87
2022-08-30T12:32:52.469Z,1019.74
2022-08-30T12:47:52.566Z,1019.68
2022-08-30T13:02:54.951Z,1019.66
2022-08-30T13:17:55.316Z,1019.54
2022-08-30T13:32:56.565Z,1019.42
2022-08-30T13:47:58.089Z,1019.42
2022-08-30T14:03:00.065Z,1019.42
2022-08-30T14:18:01.305Z,1019.34
2022-08-30T14:33:01.962Z,1019.41
2022-08-30T14:48:02.100Z,1019.36
2022-08-30T15:03:07.918Z,1019.32
2022-08-30T15:18:09.384Z,1019.38
2022-08-30T15:33:10.605Z,1019.28
2022-08-30T15:48:11.169Z,1019.31
2022-08-30T16:03:12.348Z,1019.18
2022-08-30T16:18:14.091Z,1019.17
2022-08-30T16:33:14.645Z,1019.24
2022-08-30T16:48:14.722Z,1019.20
2022-08-30T17:03:16.681Z,1019.20
2022-08-30T17:18:17.202Z,1019.12
2022-08-30T17:33:20.182Z,1019.25
2022-08-30T17:48:21.107Z,1019.34
2022-08-30T18:03:22.561Z,1019.32
2022-08-30T18:18:25.116Z,1019.59
2022-08-30T18:33:28.533Z,1019.63
2022-08-30T18:48:28.353Z,1019.74
2022-08-30T19:03:33.622Z,1019.86
2022-08-30T19:18:33.654Z,1019.75
2022-08-30T19:33:37.824Z,1019.84
2022-08-30T19:48:42.274Z,1020.04
2022-08-30T20:03:44.182Z,1020.09
2022-08-30T20:18:44.509Z,1020.11
2022-08-30T20:33:46.362Z,1020.14
2022-08-30T20:48:47.915Z,1020.16
2022-08-30T21:03:49.790Z,1020.20
2022-08-30T21:18:50.120Z,1020.26
2022-08-30T21:33:52.425Z,1020.38
2022-08-30T21:48:53.040Z,1020.25
2022-08-30T22:03:54.439Z,1020.37
2022-08-30T22:18:54.667Z,1020.52
2022-08-30T22:33:54.856Z,1020.54
2022-08-30T22:48:55.410Z,1020.59
2022-08-30T23:03:56.991Z,1020.68
2022-08-30T23:18:57.130Z,1020.67
2022-08-30T23:33:57.391Z,1020.64
2022-08-30T23:48:57.596Z,1020.64
